sensor_id;sensor_type;location;lat;lon;timestamp;temperature;humidity
70336;SHT31;57756;47.408;18.940;2023-08-12T00:01:47;15.79;86.39
70336;SHT31;57756;47.408;18.940;2023-08-12T00:04:13;15.73;86.88
70336;SHT31;57756;47.408;18.940;2023-08-12T00:06:40;15.70;87.40
70336;SHT31;57756;47.408;18.940;2023-08-12T00:09:06;15.71;87.56
70336;SHT31;57756;47.408;18.940;2023-08-12T00:11:34;15.69;87.80
70336;SHT31;57756;47.408;18.940;2023-08-12T00:14:00;15.70;87.54
70336;SHT31;57756;47.408;18.940;2023-08-12T00:16:25;15.66;87.17
70336;SHT31;57756;47.408;18.940;2023-08-12T00:18:51;15.60;87.91
70336;SHT31;57756;47.408;18.940;2023-08-12T00:21:16;15.53;87.93
70336;SHT31;57756;47.408;18.940;2023-08-12T00:23:42;15.49;88.41
70336;SHT31;57756;47.408;18.940;2023-08-12T00:26:09;15.53;88.70
70336;SHT31;57756;47.408;18.940;2023-08-12T00:28:35;15.50;87.91
70336;SHT31;57756;47.408;18.940;2023-08-12T00:31:00;15.49;88.11
70336;SHT31;57756;47.408;18.940;2023-08-12T00:33:26;15.49;88.06
70336;SHT31;57756;47.408;18.940;2023-08-12T00:35:51;15.47;88.27
70336;SHT31;57756;47.408;18.940;2023-08-12T00:38:17;15.47;88.42
70336;SHT31;57756;47.408;18.940;2023-08-12T00:40:42;15.44;88.44
70336;SHT31;57756;47.408;18.940;2023-08-12T00:43:08;15.40;88.33
70336;SHT31;57756;47.408;18.940;2023-08-12T00:45:34;15.39;88.32
70336;SHT31;57756;47.408;18.940;2023-08-12T00:48:00;15.36;88.35
70336;SHT31;57756;47.408;18.940;2023-08-12T00:50:25;15.33;88.78
70336;SHT31;57756;47.408;18.940;2023-08-12T00:52:51;15.29;88.59
70336;SHT31;57756;47.408;18.940;2023-08-12T00:55:17;15.28;89.44
70336;SHT31;57756;47.408;18.940;2023-08-12T00:57:43;15.23;89.28
70336;SHT31;57756;47.408;18.940;2023-08-12T01:00:09;15.19;89.18
70336;SHT31;57756;47.408;18.940;2023-08-12T01:02:35;15.21;88.91
70336;SHT31;57756;47.408;18.940;2023-08-12T01:05:00;15.18;89.14
70336;SHT31;57756;47.408;18.940;2023-08-12T01:07:26;15.15;89.92
70336;SHT31;57756;47.408;18.940;2023-08-12T01:09:52;15.09;89.63
70336;SHT31;57756;47.408;18.940;2023-08-12T01:12:53;15.12;89.83
70336;SHT31;57756;47.408;18.940;2023-08-12T01:15:21;15.11;89.30
70336;SHT31;57756;47.408;18.940;2023-08-12T01:17:49;15.06;90.10
70336;SHT31;57756;47.408;18.940;2023-08-12T01:20:21;15.05;89.55
70336;SHT31;57756;47.408;18.940;2023-08-12T01:23:13;15.02;90.10
70336;SHT31;57756;47.408;18.940;2023-08-12T01:25:38;15.04;89.77
70336;SHT31;57756;47.408;18.940;2023-08-12T01:28:04;14.99;89.94
70336;SHT31;57756;47.408;18.940;2023-08-12T01:30:30;14.98;90.03
70336;SHT31;57756;47.408;18.940;2023-08-12T01:33:05;14.92;90.11
70336;SHT31;57756;47.408;18.940;2023-08-12T01:35:38;14.88;90.25
70336;SHT31;57756;47.408;18.940;2023-08-12T01:38:06;14.85;89.94
70336;SHT31;57756;47.408;18.940;2023-08-12T01:40:33;14.84;90.73
70336;SHT31;57756;47.408;18.940;2023-08-12T01:43:00;14.85;91.34
70336;SHT31;57756;47.408;18.940;2023-08-12T01:45:26;14.85;90.69
70336;SHT31;57756;47.408;18.940;2023-08-12T01:47:51;14.85;90.77
70336;SHT31;57756;47.408;18.940;2023-08-12T01:50:17;14.80;90.93
70336;SHT31;57756;47.408;18.940;2023-08-12T01:52:44;14.80;91.05
70336;SHT31;57756;47.408;18.940;2023-08-12T01:55:10;14.83;90.33
70336;SHT31;57756;47.408;18.940;2023-08-12T01:57:35;14.81;90.84
70336;SHT31;57756;47.408;18.940;2023-08-12T02:00:01;14.77;91.21
70336;SHT31;57756;47.408;18.940;2023-08-12T02:02:27;14.78;90.89
70336;SHT31;57756;47.408;18.940;2023-08-12T02:04:52;14.75;91.30
70336;SHT31;57756;47.408;18.940;2023-08-12T02:07:18;14.73;91.12
70336;SHT31;57756;47.408;18.940;2023-08-12T02:09:43;14.67;91.42
70336;SHT31;57756;47.408;18.940;2023-08-12T02:12:09;14.70;91.09
70336;SHT31;57756;47.408;18.940;2023-08-12T02:14:34;14.70;91.36
70336;SHT31;57756;47.408;18.940;2023-08-12T02:17:02;14.74;91.10
70336;SHT31;57756;47.408;18.940;2023-08-12T02:19:27;14.70;90.35
70336;SHT31;57756;47.408;18.940;2023-08-12T02:21:53;14.73;90.69
70336;SHT31;57756;47.408;18.940;2023-08-12T02:24:18;14.67;90.72
70336;SHT31;57756;47.408;18.940;2023-08-12T02:26:43;14.68;90.34
70336;SHT31;57756;47.408;18.940;2023-08-12T02:29:09;14.68;90.70
70336;SHT31;57756;47.408;18.940;2023-08-12T02:31:34;14.66;90.72
70336;SHT31;57756;47.408;18.940;2023-08-12T02:34:00;14.66;90.09
70336;SHT31;57756;47.408;18.940;2023-08-12T02:36:25;14.64;90.01
70336;SHT31;57756;47.408;18.940;2023-08-12T02:38:52;14.64;89.66
70336;SHT31;57756;47.408;18.940;2023-08-12T02:41:17;14.64;89.61
70336;SHT31;57756;47.408;18.940;2023-08-12T02:43:43;14.66;89.73
70336;SHT31;57756;47.408;18.940;2023-08-12T02:46:08;14.66;89.79
70336;SHT31;57756;47.408;18.940;2023-08-12T02:48:34;14.61;89.80
70336;SHT31;57756;47.408;18.940;2023-08-12T02:51:00;14.60;89.46
70336;SHT31;57756;47.408;18.940;2023-08-12T02:53:25;14.66;89.29
70336;SHT31;57756;47.408;18.940;2023-08-12T02:55:51;14.66;89.48
70336;SHT31;57756;47.408;18.940;2023-08-12T02:58:16;14.63;89.04
70336;SHT31;57756;47.408;18.940;2023-08-12T03:00:42;14.61;89.23
70336;SHT31;57756;47.408;18.940;2023-08-12T03:03:11;14.64;89.45
70336;SHT31;57756;47.408;18.940;2023-08-12T03:05:36;14.64;89.52
70336;SHT31;57756;47.408;18.940;2023-08-12T03:08:02;14.61;89.77
70336;SHT31;57756;47.408;18.940;2023-08-12T03:10:29;14.59;89.97
70336;SHT31;57756;47.408;18.940;2023-08-12T03:12:54;14.55;90.51
70336;SHT31;57756;47.408;18.940;2023-08-12T03:15:20;14.51;90.60
70336;SHT31;57756;47.408;18.940;2023-08-12T03:17:45;14.53;90.72
70336;SHT31;57756;47.408;18.940;2023-08-12T03:20:11;14.53;90.39
70336;SHT31;57756;47.408;18.940;2023-08-12T03:22:37;14.53;90.54
70336;SHT31;57756;47.408;18.940;2023-08-12T03:25:03;14.53;90.33
70336;SHT31;57756;47.408;18.940;2023-08-12T03:27:29;14.51;90.37
70336;SHT31;57756;47.408;18.940;2023-08-12T03:29:55;14.50;90.46
70336;SHT31;57756;47.408;18.940;2023-08-12T03:32:20;14.53;90.64
70336;SHT31;57756;47.408;18.940;2023-08-12T03:34:46;14.53;90.71
70336;SHT31;57756;47.408;18.940;2023-08-12T03:37:11;14.55;90.40
70336;SHT31;57756;47.408;18.940;2023-08-12T03:39:36;14.56;89.68
70336;SHT31;57756;47.408;18.940;2023-08-12T03:42:02;14.55;89.55
70336;SHT31;57756;47.408;18.940;2023-08-12T03:44:27;14.60;89.61
70336;SHT31;57756;47.408;18.940;2023-08-12T03:46:53;14.59;90.27
70336;SHT31;57756;47.408;18.940;2023-08-12T03:49:18;14.61;91.81
70336;SHT31;57756;47.408;18.940;2023-08-12T03:51:44;14.61;91.60
70336;SHT31;57756;47.408;18.940;2023-08-12T03:54:09;14.61;91.54
70336;SHT31;57756;47.408;18.940;2023-08-12T03:56:35;14.61;91.22
70336;SHT31;57756;47.408;18.940;2023-08-12T03:59:00;14.59;90.09
70336;SHT31;57756;47.408;18.940;2023-08-12T04:01:25;14.60;91.30
70336;SHT31;57756;47.408;18.940;2023-08-12T04:03:51;14.61;91.68
70336;SHT31;57756;47.408;18.940;2023-08-12T04:06:16;14.63;91.41
70336;SHT31;57756;47.408;18.940;2023-08-12T04:08:42;14.63;91.32
70336;SHT31;57756;47.408;18.940;2023-08-12T04:11:07;14.67;91.88
70336;SHT31;57756;47.408;18.940;2023-08-12T04:13:33;14.67;92.48
70336;SHT31;57756;47.408;18.940;2023-08-12T04:15:58;14.68;91.44
70336;SHT31;57756;47.408;18.940;2023-08-12T04:18:24;14.71;90.89
70336;SHT31;57756;47.408;18.940;2023-08-12T04:20:49;14.73;91.85
70336;SHT31;57756;47.408;18.940;2023-08-12T04:23:15;14.77;91.58
70336;SHT31;57756;47.408;18.940;2023-08-12T04:25:45;14.78;91.51
70336;SHT31;57756;47.408;18.940;2023-08-12T04:28:11;14.83;91.76
70336;SHT31;57756;47.408;18.940;2023-08-12T04:30:44;14.89;91.35
70336;SHT31;57756;47.408;18.940;2023-08-12T04:33:10;14.95;91.72
70336;SHT31;57756;47.408;18.940;2023-08-12T04:35:35;15.01;91.42
70336;SHT31;57756;47.408;18.940;2023-08-12T04:38:01;15.08;92.59
70336;SHT31;57756;47.408;18.940;2023-08-12T04:40:27;15.16;92.39
70336;SHT31;57756;47.408;18.940;2023-08-12T04:42:52;15.25;91.98
70336;SHT31;57756;47.408;18.940;2023-08-12T04:45:18;15.33;91.42
70336;SHT31;57756;47.408;18.940;2023-08-12T04:47:43;15.43;92.82
70336;SHT31;57756;47.408;18.940;2023-08-12T04:50:09;15.54;91.24
70336;SHT31;57756;47.408;18.940;2023-08-12T04:52:34;15.69;91.79
70336;SHT31;57756;47.408;18.940;2023-08-12T04:55:00;15.87;90.35
70336;SHT31;57756;47.408;18.940;2023-08-12T04:57:25;16.04;91.00
70336;SHT31;57756;47.408;18.940;2023-08-12T04:59:51;16.25;90.05
70336;SHT31;57756;47.408;18.940;2023-08-12T05:02:16;16.44;89.22
70336;SHT31;57756;47.408;18.940;2023-08-12T05:04:48;16.69;88.31
70336;SHT31;57756;47.408;18.940;2023-08-12T05:07:14;16.93;88.74
70336;SHT31;57756;47.408;18.940;2023-08-12T05:09:39;17.17;90.38
70336;SHT31;57756;47.408;18.940;2023-08-12T05:12:05;17.42;88.87
70336;SHT31;57756;47.408;18.940;2023-08-12T05:14:30;17.68;85.85
70336;SHT31;57756;47.408;18.940;2023-08-12T05:16:56;17.89;84.79
70336;SHT31;57756;47.408;18.940;2023-08-12T05:19:21;18.16;83.38
70336;SHT31;57756;47.408;18.940;2023-08-12T05:21:47;18.43;83.29
70336;SHT31;57756;47.408;18.940;2023-08-12T05:24:12;18.72;83.59
70336;SHT31;57756;47.408;18.940;2023-08-12T05:26:38;18.99;82.04
70336;SHT31;57756;47.408;18.940;2023-08-12T05:29:03;19.28;81.88
70336;SHT31;57756;47.408;18.940;2023-08-12T05:31:29;19.54;81.76
70336;SHT31;57756;47.408;18.940;2023-08-12T05:33:55;19.79;79.37
70336;SHT31;57756;47.408;18.940;2023-08-12T05:36:20;20.05;78.44
70336;SHT31;57756;47.408;18.940;2023-08-12T05:38:46;20.17;74.99
70336;SHT31;57756;47.408;18.940;2023-08-12T05:41:11;20.29;75.06
70336;SHT31;57756;47.408;18.940;2023-08-12T05:43:36;20.43;75.67
70336;SHT31;57756;47.408;18.940;2023-08-12T05:46:02;20.60;75.43
70336;SHT31;57756;47.408;18.940;2023-08-12T05:48:28;20.80;73.85
70336;SHT31;57756;47.408;18.940;2023-08-12T05:50:53;20.92;72.26
70336;SHT31;57756;47.408;18.940;2023-08-12T05:53:21;21.22;72.25
70336;SHT31;57756;47.408;18.940;2023-08-12T05:55:46;21.49;73.11
70336;SHT31;57756;47.408;18.940;2023-08-12T05:58:12;21.83;71.66
70336;SHT31;57756;47.408;18.940;2023-08-12T06:00:37;21.97;70.56
70336;SHT31;57756;47.408;18.940;2023-08-12T06:03:03;22.32;72.02
70336;SHT31;57756;47.408;18.940;2023-08-12T06:05:29;22.53;71.97
70336;SHT31;57756;47.408;18.940;2023-08-12T06:07:54;22.80;70.61
70336;SHT31;57756;47.408;18.940;2023-08-12T06:10:19;22.98;69.85
70336;SHT31;57756;47.408;18.940;2023-08-12T06:12:45;23.11;69.81
70336;SHT31;57756;47.408;18.940;2023-08-12T06:15:10;23.29;69.08
70336;SHT31;57756;47.408;18.940;2023-08-12T06:17:36;23.70;69.52
70336;SHT31;57756;47.408;18.940;2023-08-12T06:20:02;23.97;68.21
70336;SHT31;57756;47.408;18.940;2023-08-12T06:22:27;24.30;65.97
70336;SHT31;57756;47.408;18.940;2023-08-12T06:24:53;24.49;64.89
70336;SHT31;57756;47.408;18.940;2023-08-12T06:27:18;24.72;64.58
70336;SHT31;57756;47.408;18.940;2023-08-12T06:29:46;24.95;65.04
70336;SHT31;57756;47.408;18.940;2023-08-12T06:32:12;25.05;61.02
70336;SHT31;57756;47.408;18.940;2023-08-12T06:34:38;25.20;61.30
70336;SHT31;57756;47.408;18.940;2023-08-12T06:37:03;25.33;61.35
70336;SHT31;57756;47.408;18.940;2023-08-12T06:39:29;25.47;60.68
70336;SHT31;57756;47.408;18.940;2023-08-12T06:41:54;25.77;59.80
70336;SHT31;57756;47.408;18.940;2023-08-12T06:44:21;25.84;62.46
70336;SHT31;57756;47.408;18.940;2023-08-12T06:46:46;26.13;60.98
70336;SHT31;57756;47.408;18.940;2023-08-12T06:49:12;26.50;58.25
70336;SHT31;57756;47.408;18.940;2023-08-12T06:51:37;26.87;60.76
70336;SHT31;57756;47.408;18.940;2023-08-12T06:54:03;26.95;57.35
70336;SHT31;57756;47.408;18.940;2023-08-12T06:56:29;27.11;57.11
70336;SHT31;57756;47.408;18.940;2023-08-12T06:58:55;27.23;56.64
70336;SHT31;57756;47.408;18.940;2023-08-12T07:01:20;27.53;56.19
70336;SHT31;57756;47.408;18.940;2023-08-12T07:03:46;27.94;55.97
70336;SHT31;57756;47.408;18.940;2023-08-12T07:06:11;27.88;56.41
70336;SHT31;57756;47.408;18.940;2023-08-12T07:08:37;28.15;57.18
70336;SHT31;57756;47.408;18.940;2023-08-12T07:11:02;28.36;57.18
70336;SHT31;57756;47.408;18.940;2023-08-12T07:13:28;28.52;54.56
70336;SHT31;57756;47.408;18.940;2023-08-12T07:15:55;28.72;55.09
70336;SHT31;57756;47.408;18.940;2023-08-12T07:18:20;28.76;53.82
70336;SHT31;57756;47.408;18.940;2023-08-12T07:20:46;28.66;54.07
70336;SHT31;57756;47.408;18.940;2023-08-12T07:23:11;28.99;56.11
70336;SHT31;57756;47.408;18.940;2023-08-12T07:25:36;29.20;52.40
70336;SHT31;57756;47.408;18.940;2023-08-12T07:28:02;29.47;53.97
70336;SHT31;57756;47.408;18.940;2023-08-12T07:30:28;29.70;55.12
70336;SHT31;57756;47.408;18.940;2023-08-12T07:32:53;29.79;53.49
70336;SHT31;57756;47.408;18.940;2023-08-12T07:35:19;30.25;50.76
70336;SHT31;57756;47.408;18.940;2023-08-12T07:37:44;29.95;52.72
70336;SHT31;57756;47.408;18.940;2023-08-12T07:40:10;30.44;50.44
70336;SHT31;57756;47.408;18.940;2023-08-12T07:42:36;30.27;52.19
70336;SHT31;57756;47.408;18.940;2023-08-12T07:45:01;30.44;52.18
70336;SHT31;57756;47.408;18.940;2023-08-12T07:47:27;30.52;51.52
70336;SHT31;57756;47.408;18.940;2023-08-12T07:49:52;30.69;50.92
70336;SHT31;57756;47.408;18.940;2023-08-12T07:52:17;30.71;50.86
70336;SHT31;57756;47.408;18.940;2023-08-12T07:54:43;30.95;52.26
70336;SHT31;57756;47.408;18.940;2023-08-12T07:57:08;30.96;49.49
70336;SHT31;57756;47.408;18.940;2023-08-12T07:59:34;30.92;51.65
70336;SHT31;57756;47.408;18.940;2023-08-12T08:01:59;31.10;49.74
70336;SHT31;57756;47.408;18.940;2023-08-12T08:04:25;30.38;50.39
70336;SHT31;57756;47.408;18.940;2023-08-12T08:06:50;30.38;51.98
70336;SHT31;57756;47.408;18.940;2023-08-12T08:09:16;31.04;49.30
70336;SHT31;57756;47.408;18.940;2023-08-12T08:11:41;30.71;52.30
70336;SHT31;57756;47.408;18.940;2023-08-12T08:14:07;31.10;49.83
70336;SHT31;57756;47.408;18.940;2023-08-12T08:16:32;31.31;49.90
70336;SHT31;57756;47.408;18.940;2023-08-12T08:18:58;31.20;49.44
70336;SHT31;57756;47.408;18.940;2023-08-12T08:21:23;31.10;52.18
70336;SHT31;57756;47.408;18.940;2023-08-12T08:23:49;31.22;50.56
70336;SHT31;57756;47.408;18.940;2023-08-12T08:26:15;31.53;49.80
70336;SHT31;57756;47.408;18.940;2023-08-12T08:28:41;31.98;50.05
70336;SHT31;57756;47.408;18.940;2023-08-12T08:31:06;31.84;50.25
70336;SHT31;57756;47.408;18.940;2023-08-12T08:33:32;31.65;49.13
70336;SHT31;57756;47.408;18.940;2023-08-12T08:35:57;32.16;48.90
70336;SHT31;57756;47.408;18.940;2023-08-12T08:38:23;32.35;49.52
70336;SHT31;57756;47.408;18.940;2023-08-12T08:40:51;31.75;49.43
70336;SHT31;57756;47.408;18.940;2023-08-12T08:43:20;32.19;50.09
70336;SHT31;57756;47.408;18.940;2023-08-12T08:45:50;32.49;51.82
70336;SHT31;57756;47.408;18.940;2023-08-12T08:48:17;32.25;48.92
70336;SHT31;57756;47.408;18.940;2023-08-12T08:50:42;32.36;49.18
70336;SHT31;57756;47.408;18.940;2023-08-12T08:53:11;32.83;49.86
70336;SHT31;57756;47.408;18.940;2023-08-12T08:55:41;32.94;47.80
70336;SHT31;57756;47.408;18.940;2023-08-12T08:58:06;32.60;47.94
70336;SHT31;57756;47.408;18.940;2023-08-12T09:00:32;32.91;49.07
70336;SHT31;57756;47.408;18.940;2023-08-12T09:02:58;32.83;48.86
70336;SHT31;57756;47.408;18.940;2023-08-12T09:05:25;32.67;48.00
70336;SHT31;57756;47.408;18.940;2023-08-12T09:07:51;32.97;49.19
70336;SHT31;57756;47.408;18.940;2023-08-12T09:10:18;33.22;48.41
70336;SHT31;57756;47.408;18.940;2023-08-12T09:12:45;33.21;48.04
70336;SHT31;57756;47.408;18.940;2023-08-12T09:15:12;32.78;48.30
70336;SHT31;57756;47.408;18.940;2023-08-12T09:17:37;33.31;47.81
70336;SHT31;57756;47.408;18.940;2023-08-12T09:20:03;33.59;49.65
70336;SHT31;57756;47.408;18.940;2023-08-12T09:22:34;33.59;48.27
70336;SHT31;57756;47.408;18.940;2023-08-12T09:24:59;33.93;47.94
70336;SHT31;57756;47.408;18.940;2023-08-12T09:27:25;33.82;47.58
70336;SHT31;57756;47.408;18.940;2023-08-12T09:29:55;33.70;48.99
70336;SHT31;57756;47.408;18.940;2023-08-12T09:32:22;34.81;47.80
70336;SHT31;57756;47.408;18.940;2023-08-12T09:34:51;34.44;46.91
70336;SHT31;57756;47.408;18.940;2023-08-12T09:37:18;34.37;46.00
70336;SHT31;57756;47.408;18.940;2023-08-12T09:39:44;34.23;48.36
70336;SHT31;57756;47.408;18.940;2023-08-12T09:42:11;34.51;46.09
70336;SHT31;57756;47.408;18.940;2023-08-12T09:44:39;34.16;45.51
70336;SHT31;57756;47.408;18.940;2023-08-12T09:47:06;35.02;46.20
70336;SHT31;57756;47.408;18.940;2023-08-12T09:49:31;35.82;42.82
70336;SHT31;57756;47.408;18.940;2023-08-12T09:51:57;35.87;40.34
70336;SHT31;57756;47.408;18.940;2023-08-12T09:54:26;36.56;40.16
70336;SHT31;57756;47.408;18.940;2023-08-12T09:56:57;36.02;40.68
70336;SHT31;57756;47.408;18.940;2023-08-12T09:59:31;36.49;40.40
70336;SHT31;57756;47.408;18.940;2023-08-12T10:02:01;36.54;40.03
70336;SHT31;57756;47.408;18.940;2023-08-12T10:04:37;36.88;44.63
70336;SHT31;57756;47.408;18.940;2023-08-12T10:07:05;36.64;41.87
70336;SHT31;57756;47.408;18.940;2023-08-12T10:09:32;36.63;42.07
70336;SHT31;57756;47.408;18.940;2023-08-12T10:11:58;37.04;40.55
70336;SHT31;57756;47.408;18.940;2023-08-12T10:14:24;35.60;40.84
70336;SHT31;57756;47.408;18.940;2023-08-12T10:16:50;35.13;41.34
70336;SHT31;57756;47.408;18.940;2023-08-12T10:19:16;35.73;41.97
70336;SHT31;57756;47.408;18.940;2023-08-12T10:21:44;35.91;40.56
70336;SHT31;57756;47.408;18.940;2023-08-12T10:24:11;35.26;41.04
70336;SHT31;57756;47.408;18.940;2023-08-12T10:26:37;35.40;41.38
70336;SHT31;57756;47.408;18.940;2023-08-12T10:29:03;35.29;39.96
70336;SHT31;57756;47.408;18.940;2023-08-12T10:31:29;35.09;43.17
70336;SHT31;57756;47.408;18.940;2023-08-12T10:33:57;34.21;43.22
70336;SHT31;57756;47.408;18.940;2023-08-12T10:36:23;33.55;44.96
70336;SHT31;57756;47.408;18.940;2023-08-12T10:38:48;32.84;46.55
70336;SHT31;57756;47.408;18.940;2023-08-12T10:41:24;32.70;47.59
70336;SHT31;57756;47.408;18.940;2023-08-12T10:46:28;32.42;47.60
70336;SHT31;57756;47.408;18.940;2023-08-12T10:49:10;31.94;51.22
70336;SHT31;57756;47.408;18.940;2023-08-12T10:54:27;32.26;48.96
70336;SHT31;57756;47.408;18.940;2023-08-12T11:04:49;31.23;49.49
70336;SHT31;57756;47.408;18.940;2023-08-12T11:07:16;32.15;48.97
70336;SHT31;57756;47.408;18.940;2023-08-12T11:09:42;32.91;47.20
70336;SHT31;57756;47.408;18.940;2023-08-12T11:12:08;34.45;45.91
70336;SHT31;57756;47.408;18.940;2023-08-12T11:14:47;34.66;43.41
70336;SHT31;57756;47.408;18.940;2023-08-12T11:17:14;33.55;45.70
70336;SHT31;57756;47.408;18.940;2023-08-12T11:19:41;34.43;43.39
70336;SHT31;57756;47.408;18.940;2023-08-12T11:22:07;33.88;45.43
70336;SHT31;57756;47.408;18.940;2023-08-12T11:24:33;33.00;44.83
70336;SHT31;57756;47.408;18.940;2023-08-12T11:27:01;32.71;52.09
70336;SHT31;57756;47.408;18.940;2023-08-12T11:29:26;32.26;48.74
70336;SHT31;57756;47.408;18.940;2023-08-12T11:31:52;31.78;47.24
70336;SHT31;57756;47.408;18.940;2023-08-12T11:34:17;32.11;49.62
70336;SHT31;57756;47.408;18.940;2023-08-12T11:36:43;33.32;47.50
70336;SHT31;57756;47.408;18.940;2023-08-12T11:39:08;34.33;45.46
70336;SHT31;57756;47.408;18.940;2023-08-12T11:41:34;34.29;47.79
70336;SHT31;57756;47.408;18.940;2023-08-12T11:43:59;35.06;45.07
70336;SHT31;57756;47.408;18.940;2023-08-12T11:46:25;34.99;46.29
70336;SHT31;57756;47.408;18.940;2023-08-12T11:48:50;35.27;47.27
70336;SHT31;57756;47.408;18.940;2023-08-12T11:51:16;35.16;41.63
70336;SHT31;57756;47.408;18.940;2023-08-12T11:53:42;35.41;44.94
70336;SHT31;57756;47.408;18.940;2023-08-12T11:56:08;34.91;42.99
70336;SHT31;57756;47.408;18.940;2023-08-12T11:58:36;33.77;43.84
70336;SHT31;57756;47.408;18.940;2023-08-12T12:01:02;33.18;44.58
70336;SHT31;57756;47.408;18.940;2023-08-12T12:03:28;33.21;46.09
70336;SHT31;57756;47.408;18.940;2023-08-12T12:05:56;33.85;45.61
70336;SHT31;57756;47.408;18.940;2023-08-12T12:08:22;33.99;45.78
70336;SHT31;57756;47.408;18.940;2023-08-12T12:10:47;33.80;44.26
70336;SHT31;57756;47.408;18.940;2023-08-12T12:13:13;32.83;46.32
70336;SHT31;57756;47.408;18.940;2023-08-12T12:15:43;32.61;47.70
70336;SHT31;57756;47.408;18.940;2023-08-12T12:18:12;32.69;46.43
70336;SHT31;57756;47.408;18.940;2023-08-12T12:20:53;33.00;48.02
70336;SHT31;57756;47.408;18.940;2023-08-12T12:23:18;32.52;48.09
70336;SHT31;57756;47.408;18.940;2023-08-12T12:25:44;31.92;48.93
70336;SHT31;57756;47.408;18.940;2023-08-12T12:28:10;31.47;48.49
70336;SHT31;57756;47.408;18.940;2023-08-12T12:30:36;31.20;50.51
70336;SHT31;57756;47.408;18.940;2023-08-12T12:33:01;31.40;49.76
70336;SHT31;57756;47.408;18.940;2023-08-12T12:35:27;31.60;49.45
70336;SHT31;57756;47.408;18.940;2023-08-12T12:37:53;31.75;48.03
70336;SHT31;57756;47.408;18.940;2023-08-12T12:40:18;31.91;48.54
70336;SHT31;57756;47.408;18.940;2023-08-12T12:42:44;32.09;47.63
70336;SHT31;57756;47.408;18.940;2023-08-12T12:45:09;32.57;47.74
70336;SHT31;57756;47.408;18.940;2023-08-12T12:47:35;32.50;46.68
70336;SHT31;57756;47.408;18.940;2023-08-12T12:50:00;33.12;46.70
70336;SHT31;57756;47.408;18.940;2023-08-12T12:52:26;32.87;48.15
70336;SHT31;57756;47.408;18.940;2023-08-12T12:54:51;32.74;46.74
70336;SHT31;57756;47.408;18.940;2023-08-12T12:57:17;32.49;47.34
70336;SHT31;57756;47.408;18.940;2023-08-12T12:59:42;32.63;47.91
70336;SHT31;57756;47.408;18.940;2023-08-12T13:02:08;32.40;46.90
70336;SHT31;57756;47.408;18.940;2023-08-12T13:04:33;32.05;48.25
70336;SHT31;57756;47.408;18.940;2023-08-12T13:06:59;31.96;47.37
70336;SHT31;57756;47.408;18.940;2023-08-12T13:09:24;31.67;49.18
70336;SHT31;57756;47.408;18.940;2023-08-12T13:11:50;31.15;49.46
70336;SHT31;57756;47.408;18.940;2023-08-12T13:14:15;31.03;49.39
70336;SHT31;57756;47.408;18.940;2023-08-12T13:16:44;31.19;48.70
70336;SHT31;57756;47.408;18.940;2023-08-12T13:19:09;30.92;48.07
70336;SHT31;57756;47.408;18.940;2023-08-12T13:21:35;31.10;48.84
70336;SHT31;57756;47.408;18.940;2023-08-12T13:24:00;30.98;49.46
70336;SHT31;57756;47.408;18.940;2023-08-12T13:26:26;30.89;50.18
70336;SHT31;57756;47.408;18.940;2023-08-12T13:28:53;31.37;48.75
70336;SHT31;57756;47.408;18.940;2023-08-12T13:31:18;31.04;50.71
70336;SHT31;57756;47.408;18.940;2023-08-12T13:33:43;30.74;51.13
70336;SHT31;57756;47.408;18.940;2023-08-12T13:36:09;30.58;51.48
70336;SHT31;57756;47.408;18.940;2023-08-12T13:38:35;30.74;49.94
70336;SHT31;57756;47.408;18.940;2023-08-12T13:41:00;30.71;50.30
70336;SHT31;57756;47.408;18.940;2023-08-12T13:43:26;30.67;49.85
70336;SHT31;57756;47.408;18.940;2023-08-12T13:45:51;30.62;50.16
70336;SHT31;57756;47.408;18.940;2023-08-12T13:48:16;30.61;50.78
70336;SHT31;57756;47.408;18.940;2023-08-12T13:50:42;30.49;49.34
70336;SHT31;57756;47.408;18.940;2023-08-12T13:53:07;30.23;50.25
70336;SHT31;57756;47.408;18.940;2023-08-12T13:55:33;30.49;50.13
70336;SHT31;57756;47.408;18.940;2023-08-12T13:57:58;30.24;49.22
70336;SHT31;57756;47.408;18.940;2023-08-12T14:00:24;29.90;49.68
70336;SHT31;57756;47.408;18.940;2023-08-12T14:02:50;29.79;51.71
70336;SHT31;57756;47.408;18.940;2023-08-12T14:05:15;29.73;51.46
70336;SHT31;57756;47.408;18.940;2023-08-12T14:07:41;29.73;51.63
70336;SHT31;57756;47.408;18.940;2023-08-12T14:10:07;29.75;53.46
70336;SHT31;57756;47.408;18.940;2023-08-12T14:12:33;29.63;52.35
70336;SHT31;57756;47.408;18.940;2023-08-12T14:14:59;29.66;53.07
70336;SHT31;57756;47.408;18.940;2023-08-12T14:17:25;29.52;51.63
70336;SHT31;57756;47.408;18.940;2023-08-12T14:19:51;29.52;51.47
70336;SHT31;57756;47.408;18.940;2023-08-12T14:22:18;29.41;53.55
70336;SHT31;57756;47.408;18.940;2023-08-12T14:24:44;29.31;51.60
70336;SHT31;57756;47.408;18.940;2023-08-12T14:27:10;29.35;52.63
70336;SHT31;57756;47.408;18.940;2023-08-12T14:29:36;29.38;50.38
70336;SHT31;57756;47.408;18.940;2023-08-12T14:32:01;29.24;50.66
70336;SHT31;57756;47.408;18.940;2023-08-12T14:34:27;29.12;51.44
70336;SHT31;57756;47.408;18.940;2023-08-12T14:36:52;29.15;53.24
70336;SHT31;57756;47.408;18.940;2023-08-12T14:39:18;29.08;53.09
70336;SHT31;57756;47.408;18.940;2023-08-12T14:41:44;29.01;52.49
70336;SHT31;57756;47.408;18.940;2023-08-12T14:44:09;28.97;53.71
70336;SHT31;57756;47.408;18.940;2023-08-12T14:46:34;28.94;52.65
70336;SHT31;57756;47.408;18.940;2023-08-12T14:49:00;28.92;54.33
70336;SHT31;57756;47.408;18.940;2023-08-12T14:51:25;28.90;54.71
70336;SHT31;57756;47.408;18.940;2023-08-12T14:53:51;28.90;53.64
70336;SHT31;57756;47.408;18.940;2023-08-12T14:56:17;28.80;53.05
70336;SHT31;57756;47.408;18.940;2023-08-12T14:58:42;28.82;53.14
70336;SHT31;57756;47.408;18.940;2023-08-12T15:01:08;28.80;53.05
70336;SHT31;57756;47.408;18.940;2023-08-12T15:03:33;28.65;52.12
70336;SHT31;57756;47.408;18.940;2023-08-12T15:06:00;28.67;53.00
70336;SHT31;57756;47.408;18.940;2023-08-12T15:08:26;28.62;54.37
70336;SHT31;57756;47.408;18.940;2023-08-12T15:10:52;28.46;55.39
70336;SHT31;57756;47.408;18.940;2023-08-12T15:13:17;28.53;54.81
70336;SHT31;57756;47.408;18.940;2023-08-12T15:15:45;28.46;52.60
70336;SHT31;57756;47.408;18.940;2023-08-12T15:18:11;28.45;53.43
70336;SHT31;57756;47.408;18.940;2023-08-12T15:20:37;28.42;53.50
70336;SHT31;57756;47.408;18.940;2023-08-12T15:23:03;28.36;54.09